Time;durP1;ratioP1;P1;durP2;ratioP2;P2;SDS_P1;SDS_P2;PMS_P1;PMS_P2;Temp;Humidity;BMP_temperature;BMP_pressure;BME280_temperature;BME280_humidity;BME280_pressure;Samples;Min_cycle;Max_cycle;Signal;HPM_P1;HPM_P2
2022/05/05 00:00:57;;;;;;;1.07;0.50;;;;;;;;;;1903152;73;26813;-46
2022/05/05 00:03:25;;;;;;;0.37;0.37;;;;;;;;;;1914563;74;26249;-50
2022/05/05 00:05:52;;;;;;;0.30;0.30;;;;;;;;;;1920882;73;26266;-47
2022/05/05 00:08:19;;;;;;;0.70;0.23;;;;;;;;;;1924860;73;26262;-53
2022/05/05 00:16:17;;;;;;;0.40;0.40;;;;;;;;;;1907574;74;27249;-54
2022/05/05 00:18:45;;;;;;;0.50;0.37;;;;;;;;;;1908399;73;26265;-55
2022/05/05 00:21:12;;;;;;;0.88;0.40;;;;;;;;;;1903313;74;26305;-54
2022/05/05 00:23:39;;;;;;;0.33;0.33;;;;;;;;;;1911062;73;26257;-49
2022/05/05 00:26:07;;;;;;;1.07;0.30;;;;;;;;;;1913445;74;26254;-52
2022/05/05 00:28:34;;;;;;;0.45;0.37;;;;;;;;;;1909006;74;26619;-51
2022/05/05 00:31:01;;;;;;;0.37;0.37;;;;;;;;;;1913626;74;26800;-51
2022/05/05 00:33:28;;;;;;;0.33;0.33;;;;;;;;;;1914174;74;26257;-52
2022/05/05 00:35:56;;;;;;;0.65;0.40;;;;;;;;;;1911872;74;26297;-45
2022/05/05 00:38:23;;;;;;;0.30;0.30;;;;;;;;;;1911647;74;26351;-51
2022/05/05 00:40:51;;;;;;;0.33;0.33;;;;;;;;;;1911079;73;26326;-49
2022/05/05 00:43:18;;;;;;;0.40;0.40;;;;;;;;;;1925076;73;26298;-51
2022/05/05 00:45:46;;;;;;;0.40;0.40;;;;;;;;;;1885649;74;26516;-53
2022/05/05 00:48:14;;;;;;;2.67;0.50;;;;;;;;;;1905917;73;26191;-48
2022/05/05 00:50:42;;;;;;;0.20;0.20;;;;;;;;;;1909740;73;27099;-52
2022/05/05 00:53:09;;;;;;;0.30;0.30;;;;;;;;;;1904193;73;26263;-52
2022/05/05 00:55:38;;;;;;;0.45;0.45;;;;;;;;;;1913696;74;26291;-51
2022/05/05 00:58:05;;;;;;;0.45;0.45;;;;;;;;;;1902547;75;26285;-54
2022/05/05 01:00:33;;;;;;;0.47;0.47;;;;;;;;;;1908867;74;26228;-50
2022/05/05 01:03:01;;;;;;;1.15;0.40;;;;;;;;;;1913406;75;26613;-48
2022/05/05 01:05:29;;;;;;;0.40;0.40;;;;;;;;;;1910101;73;26229;-55
2022/05/05 01:08:00;;;;;;;0.82;0.42;;;;;;;;;;1913876;74;26767;-54
2022/05/05 01:10:27;;;;;;;3.02;0.72;;;;;;;;;;1911562;74;26337;-54
2022/05/05 01:12:55;;;;;;;0.40;0.40;;;;;;;;;;1911975;74;26194;-48
2022/05/05 01:15:23;;;;;;;0.95;0.50;;;;;;;;;;1892993;75;26316;-49
2022/05/05 01:17:50;;;;;;;0.50;0.50;;;;;;;;;;1902166;74;26254;-46
2022/05/05 01:20:18;;;;;;;0.35;0.35;;;;;;;;;;1914637;75;26261;-49
2022/05/05 01:22:46;;;;;;;0.47;0.47;;;;;;;;;;1912940;74;27407;-47
2022/05/05 01:28:11;;;;;;;0.40;0.40;;;;;;;;;;1888497;73;26302;-49
2022/05/05 01:30:45;;;;;;;0.33;0.33;;;;;;;;;;1907461;74;26332;-46
2022/05/05 01:33:14;;;;;;;0.60;0.40;;;;;;;;;;1919253;73;26284;-49
2022/05/05 01:35:42;;;;;;;0.35;0.35;;;;;;;;;;1913858;75;26263;-51
2022/05/05 01:38:10;;;;;;;0.50;0.50;;;;;;;;;;1914579;75;26395;-51
2022/05/05 01:40:39;;;;;;;0.50;0.50;;;;;;;;;;1928437;73;26269;-48
2022/05/05 01:43:07;;;;;;;0.40;0.40;;;;;;;;;;1908775;73;27390;-49
2022/05/05 01:45:35;;;;;;;0.42;0.42;;;;;;;;;;1909455;73;26751;-47
2022/05/05 01:48:03;;;;;;;0.33;0.33;;;;;;;;;;1898077;74;26238;-47
2022/05/05 01:50:33;;;;;;;0.40;0.40;;;;;;;;;;1913720;74;26788;-55
2022/05/05 01:53:01;;;;;;;0.37;0.37;;;;;;;;;;1878080;75;26810;-49
2022/05/05 01:55:30;;;;;;;0.40;0.40;;;;;;;;;;1907408;74;26299;-50
2022/05/05 01:57:58;;;;;;;0.40;0.40;;;;;;;;;;1910706;73;26241;-49
2022/05/05 02:00:25;;;;;;;0.50;0.50;;;;;;;;;;1908117;73;26734;-47
2022/05/05 02:02:53;;;;;;;0.55;0.55;;;;;;;;;;1909754;73;26738;-47
2022/05/05 02:05:20;;;;;;;0.53;0.40;;;;;;;;;;1904283;73;26253;-54
2022/05/05 02:07:48;;;;;;;1.00;0.60;;;;;;;;;;1908979;74;26262;-53
2022/05/05 02:10:16;;;;;;;0.68;0.40;;;;;;;;;;1908434;73;27303;-54
2022/05/05 02:12:45;;;;;;;0.40;0.40;;;;;;;;;;1912857;74;26535;-50
2022/05/05 02:15:13;;;;;;;0.40;0.40;;;;;;;;;;1911452;73;26720;-49
2022/05/05 02:17:42;;;;;;;0.30;0.30;;;;;;;;;;1913608;73;26250;-47
2022/05/05 02:20:14;;;;;;;0.40;0.40;;;;;;;;;;1914461;73;26761;-50
2022/05/05 02:22:41;;;;;;;0.50;0.50;;;;;;;;;;1912701;73;26843;-51
2022/05/05 02:25:09;;;;;;;0.45;0.45;;;;;;;;;;1909917;74;26802;-45
2022/05/05 02:27:49;;;;;;;0.55;0.55;;;;;;;;;;1916288;73;26238;-48
2022/05/05 02:30:18;;;;;;;1.22;0.37;;;;;;;;;;1903117;74;26610;-45
2022/05/05 02:32:45;;;;;;;0.55;0.55;;;;;;;;;;1913057;73;26229;-49
2022/05/05 02:35:13;;;;;;;0.55;0.55;;;;;;;;;;1914418;74;26238;-50
2022/05/05 02:40:26;;;;;;;0.85;0.40;;;;;;;;;;1907785;74;26340;-50
2022/05/05 02:42:55;;;;;;;1.52;0.42;;;;;;;;;;1912866;73;26300;-46
2022/05/05 02:45:23;;;;;;;0.70;0.40;;;;;;;;;;1903846;74;26273;-51
2022/05/05 02:47:51;;;;;;;0.57;0.57;;;;;;;;;;1890611;73;26273;-49
2022/05/05 02:50:19;;;;;;;0.50;0.50;;;;;;;;;;1914320;74;26774;-47
2022/05/05 02:52:46;;;;;;;0.45;0.45;;;;;;;;;;1906626;73;26265;-53
2022/05/05 02:55:14;;;;;;;0.45;0.45;;;;;;;;;;1917742;74;26343;-53
2022/05/05 02:57:41;;;;;;;0.75;0.50;;;;;;;;;;1910849;73;26729;-54
2022/05/05 03:00:11;;;;;;;0.42;0.42;;;;;;;;;;1908548;73;26336;-54
2022/05/05 03:02:38;;;;;;;0.78;0.70;;;;;;;;;;1918060;74;25291;-49
2022/05/05 03:05:06;;;;;;;0.55;0.40;;;;;;;;;;1907259;73;26606;-47
2022/05/05 03:07:34;;;;;;;0.40;0.40;;;;;;;;;;1914512;75;26652;-51
2022/05/05 03:10:01;;;;;;;0.40;0.40;;;;;;;;;;1912847;73;26286;-49
2022/05/05 03:12:29;;;;;;;0.42;0.40;;;;;;;;;;1886323;74;26690;-51
2022/05/05 03:14:56;;;;;;;0.60;0.60;;;;;;;;;;1900129;73;26273;-49
2022/05/05 03:17:24;;;;;;;0.50;0.50;;;;;;;;;;1886390;73;26262;-53
2022/05/05 03:19:51;;;;;;;0.40;0.40;;;;;;;;;;1874830;76;26262;-49
2022/05/05 03:22:18;;;;;;;0.50;0.50;;;;;;;;;;1911137;73;27407;-49
2022/05/05 03:24:45;;;;;;;0.42;0.42;;;;;;;;;;1936034;73;26866;-48
2022/05/05 03:27:13;;;;;;;0.50;0.50;;;;;;;;;;1921391;73;26702;-48
2022/05/05 03:29:40;;;;;;;0.75;0.35;;;;;;;;;;1923829;74;26650;-51
2022/05/05 03:32:08;;;;;;;0.42;0.42;;;;;;;;;;1922181;74;26349;-55
2022/05/05 03:34:36;;;;;;;0.60;0.60;;;;;;;;;;1934714;73;26668;-52
2022/05/05 03:37:04;;;;;;;0.50;0.50;;;;;;;;;;1923522;74;26293;-51
2022/05/05 03:39:31;;;;;;;0.82;0.50;;;;;;;;;;1902326;73;26269;-53
2022/05/05 03:41:58;;;;;;;0.40;0.40;;;;;;;;;;1881618;76;26354;-51
2022/05/05 03:44:25;;;;;;;0.60;0.60;;;;;;;;;;1911108;73;26248;-50
2022/05/05 03:46:53;;;;;;;0.65;0.65;;;;;;;;;;1898738;73;26268;-52
2022/05/05 03:49:20;;;;;;;0.60;0.60;;;;;;;;;;1893193;73;26216;-46
2022/05/05 03:51:47;;;;;;;0.60;0.60;;;;;;;;;;1913165;74;26323;-47
2022/05/05 03:54:15;;;;;;;0.68;0.50;;;;;;;;;;1916891;74;26696;-46
2022/05/05 03:56:42;;;;;;;1.07;0.60;;;;;;;;;;1908005;73;26797;-49
2022/05/05 03:59:09;;;;;;;0.95;0.60;;;;;;;;;;1909581;74;26364;-52
2022/05/05 04:01:36;;;;;;;1.77;0.50;;;;;;;;;;1914212;73;26309;-48
2022/05/05 04:04:04;;;;;;;0.68;0.50;;;;;;;;;;1919904;73;26233;-52
2022/05/05 04:06:32;;;;;;;1.75;0.60;;;;;;;;;;1923715;74;26274;-45
2022/05/05 04:09:03;;;;;;;1.17;0.65;;;;;;;;;;1917969;73;26692;-49
2022/05/05 04:11:28;;;;;;;1.27;0.60;;;;;;;;;;1910317;74;26769;-52
2022/05/05 04:13:56;;;;;;;0.70;0.70;;;;;;;;;;1915766;73;27414;-48
2022/05/05 04:16:23;;;;;;;0.65;0.60;;;;;;;;;;1909139;74;26729;-46
2022/05/05 04:18:51;;;;;;;1.20;0.50;;;;;;;;;;1921113;73;26348;-50
2022/05/05 04:21:18;;;;;;;1.98;0.60;;;;;;;;;;1911340;74;26902;-47
2022/05/05 04:23:45;;;;;;;0.60;0.60;;;;;;;;;;1918395;74;26766;-50
2022/05/05 04:26:13;;;;;;;0.85;0.80;;;;;;;;;;1901935;73;26250;-48
2022/05/05 04:28:44;;;;;;;1.98;0.60;;;;;;;;;;1909176;74;26273;-48
2022/05/05 04:31:13;;;;;;;12.80;0.78;;;;;;;;;;1904273;73;27448;-49
2022/05/05 04:33:40;;;;;;;0.60;0.60;;;;;;;;;;1908177;74;26250;-47
2022/05/05 04:36:08;;;;;;;1.25;0.90;;;;;;;;;;1910458;73;26281;-51
2022/05/05 04:38:36;;;;;;;1.42;0.70;;;;;;;;;;1908981;73;26841;-51
2022/05/05 04:41:03;;;;;;;1.25;0.65;;;;;;;;;;1910357;74;26766;-48
2022/05/05 04:43:31;;;;;;;0.72;0.70;;;;;;;;;;1903724;73;26194;-51
2022/05/05 04:45:58;;;;;;;1.20;0.65;;;;;;;;;;1909457;74;26337;-47
2022/05/05 04:48:26;;;;;;;0.98;0.70;;;;;;;;;;1904816;73;26301;-51
2022/05/05 04:50:53;;;;;;;0.72;0.68;;;;;;;;;;1910899;75;26251;-47
2022/05/05 04:53:20;;;;;;;0.93;0.93;;;;;;;;;;1914614;73;26316;-51
2022/05/05 04:55:47;;;;;;;1.02;0.70;;;;;;;;;;1898990;74;26263;-48
2022/05/05 04:58:15;;;;;;;0.70;0.70;;;;;;;;;;1881423;73;26331;-51
2022/05/05 05:00:42;;;;;;;1.05;0.80;;;;;;;;;;1884029;73;26296;-48
2022/05/05 05:03:32;;;;;;;1.07;0.70;;;;;;;;;;1875107;76;26269;-49
2022/05/05 05:05:38;;;;;;;0.80;0.80;;;;;;;;;;1894147;73;26286;-53
2022/05/05 05:08:05;;;;;;;0.70;0.70;;;;;;;;;;1872673;75;26393;-56
2022/05/05 05:10:33;;;;;;;2.27;0.80;;;;;;;;;;1886175;73;26386;-57
2022/05/05 05:13:00;;;;;;;2.20;0.70;;;;;;;;;;1893799;74;26332;-54
2022/05/05 05:15:28;;;;;;;1.87;0.70;;;;;;;;;;1884524;74;26285;-57
2022/05/05 05:17:55;;;;;;;1.27;0.75;;;;;;;;;;1910840;73;26324;-47
2022/05/05 05:20:22;;;;;;;0.80;0.80;;;;;;;;;;1898598;73;26251;-48
2022/05/05 05:22:50;;;;;;;1.15;0.70;;;;;;;;;;1901339;73;26350;-51
2022/05/05 05:25:17;;;;;;;0.95;0.75;;;;;;;;;;1904579;73;26274;-48
2022/05/05 05:27:44;;;;;;;1.95;0.90;;;;;;;;;;1915167;74;26304;-49
2022/05/05 05:30:12;;;;;;;0.80;0.80;;;;;;;;;;1906452;74;26240;-51
2022/05/05 05:32:39;;;;;;;2.70;0.90;;;;;;;;;;1921850;73;26199;-51
2022/05/05 05:35:07;;;;;;;0.72;0.72;;;;;;;;;;1909328;74;26302;-47
2022/05/05 05:37:34;;;;;;;1.47;0.90;;;;;;;;;;1888719;73;26468;-53
2022/05/05 05:40:02;;;;;;;3.30;0.80;;;;;;;;;;1912957;74;26727;-45
2022/05/05 05:42:29;;;;;;;3.00;1.00;;;;;;;;;;1911007;73;26281;-47
2022/05/05 05:44:56;;;;;;;1.65;0.88;;;;;;;;;;1913439;74;26305;-49
2022/05/05 05:47:24;;;;;;;3.70;0.90;;;;;;;;;;1914522;74;26246;-48
2022/05/05 05:49:51;;;;;;;2.20;0.90;;;;;;;;;;1896519;73;26552;-49
2022/05/05 05:52:19;;;;;;;2.30;0.80;;;;;;;;;;1910976;74;26234;-46
2022/05/05 05:54:47;;;;;;;1.45;0.85;;;;;;;;;;1905464;73;25948;-50
2022/05/05 05:57:14;;;;;;;1.32;0.80;;;;;;;;;;1903047;74;26727;-46
2022/05/05 05:59:41;;;;;;;1.85;1.00;;;;;;;;;;1901457;73;26800;-51
2022/05/05 06:04:54;;;;;;;1.65;1.00;;;;;;;;;;1907208;74;26265;-47
2022/05/05 06:07:21;;;;;;;2.00;1.00;;;;;;;;;;1904782;73;26311;-49
2022/05/05 06:09:49;;;;;;;2.65;0.90;;;;;;;;;;1894706;74;26343;-49
2022/05/05 06:12:16;;;;;;;1.65;0.90;;;;;;;;;;1905512;73;26275;-52
2022/05/05 06:14:43;;;;;;;1.02;0.98;;;;;;;;;;1913389;74;26261;-47
2022/05/05 06:17:10;;;;;;;1.75;1.00;;;;;;;;;;1909281;73;26288;-49
2022/05/05 06:19:38;;;;;;;2.25;0.95;;;;;;;;;;1926970;73;26312;-49
2022/05/05 06:22:05;;;;;;;1.75;0.88;;;;;;;;;;1893943;74;26845;-47
2022/05/05 06:24:32;;;;;;;1.27;0.88;;;;;;;;;;1890662;73;26600;-47
2022/05/05 06:27:00;;;;;;;0.95;0.80;;;;;;;;;;1898860;75;26207;-49
2022/05/05 06:29:27;;;;;;;2.08;1.00;;;;;;;;;;1896546;75;26566;-52
2022/05/05 06:31:54;;;;;;;1.67;0.70;;;;;;;;;;1913410;75;26279;-50
2022/05/05 06:34:21;;;;;;;1.00;0.70;;;;;;;;;;1909709;73;26325;-48
2022/05/05 06:36:49;;;;;;;1.77;0.80;;;;;;;;;;1884060;73;26366;-42
2022/05/05 06:39:16;;;;;;;4.42;0.90;;;;;;;;;;1927252;73;26232;-48
2022/05/05 06:41:45;;;;;;;1.95;0.80;;;;;;;;;;1914601;75;26653;-45
2022/05/05 06:44:13;;;;;;;2.35;1.02;;;;;;;;;;1924777;74;26267;-93
2022/05/05 06:46:41;;;;;;;2.35;0.80;;;;;;;;;;1902635;74;26262;-44
2022/05/05 06:49:08;;;;;;;5.25;0.80;;;;;;;;;;1910272;74;26320;-43
2022/05/05 06:51:37;;;;;;;1.60;0.80;;;;;;;;;;1913587;74;26746;-46
2022/05/05 06:54:04;;;;;;;0.72;0.70;;;;;;;;;;1910271;74;26290;-47
2022/05/05 06:56:31;;;;;;;1.10;0.82;;;;;;;;;;1914958;74;26246;-45
2022/05/05 06:58:58;;;;;;;1.87;0.70;;;;;;;;;;1913605;74;26294;-49
2022/05/05 07:06:56;;;;;;;0.65;0.65;;;;;;;;;;1892713;74;26769;-50
2022/05/05 07:11:54;;;;;;;2.15;0.65;;;;;;;;;;1890739;75;26751;-42
2022/05/05 07:14:21;;;;;;;0.80;0.78;;;;;;;;;;1910665;74;26936;-42
2022/05/05 07:16:49;;;;;;;0.88;0.88;;;;;;;;;;1898643;73;26261;-45
2022/05/05 07:19:16;;;;;;;0.70;0.70;;;;;;;;;;1902824;74;26796;-46
2022/05/05 07:21:44;;;;;;;0.82;0.80;;;;;;;;;;1911034;74;26308;-45
2022/05/05 07:24:11;;;;;;;0.60;0.60;;;;;;;;;;1893403;74;26274;-41
2022/05/05 07:26:38;;;;;;;1.07;0.62;;;;;;;;;;1924039;74;26311;-41
2022/05/05 07:29:06;;;;;;;0.72;0.60;;;;;;;;;;1927371;73;26249;-42
2022/05/05 07:31:33;;;;;;;0.75;0.70;;;;;;;;;;1917471;74;26307;-42
2022/05/05 07:34:01;;;;;;;0.57;0.57;;;;;;;;;;1922584;74;26806;-48
2022/05/05 07:36:28;;;;;;;1.22;0.90;;;;;;;;;;1916927;73;26245;-48
2022/05/05 07:38:55;;;;;;;0.53;0.53;;;;;;;;;;1919345;74;26727;-39
2022/05/05 07:41:23;;;;;;;1.60;0.78;;;;;;;;;;1912381;74;26747;-40
2022/05/05 07:43:52;;;;;;;0.82;0.70;;;;;;;;;;1917255;74;26763;-41
2022/05/05 07:46:20;;;;;;;0.60;0.60;;;;;;;;;;1913978;74;26277;-39
2022/05/05 07:48:47;;;;;;;0.60;0.60;;;;;;;;;;1911610;74;26286;-46
2022/05/05 07:51:14;;;;;;;0.50;0.50;;;;;;;;;;1923286;74;26242;-49
2022/05/05 07:53:42;;;;;;;0.70;0.70;;;;;;;;;;1921869;74;26392;-45
2022/05/05 07:56:09;;;;;;;0.75;0.60;;;;;;;;;;1911450;74;27421;-42
2022/05/05 07:58:36;;;;;;;0.70;0.70;;;;;;;;;;1921341;74;26764;-45
2022/05/05 08:01:03;;;;;;;0.57;0.57;;;;;;;;;;1920417;74;26791;-42
2022/05/05 08:03:31;;;;;;;0.70;0.70;;;;;;;;;;1915293;74;26247;-43
2022/05/05 08:05:58;;;;;;;0.60;0.60;;;;;;;;;;1919154;74;26249;-46
2022/05/05 08:08:25;;;;;;;0.55;0.55;;;;;;;;;;1915089;74;26251;-44
2022/05/05 08:10:53;;;;;;;0.60;0.60;;;;;;;;;;1917801;74;26691;-42
2022/05/05 08:13:20;;;;;;;0.50;0.50;;;;;;;;;;1924272;74;26286;-46
2022/05/05 08:15:47;;;;;;;0.70;0.70;;;;;;;;;;1912925;74;26331;-46
2022/05/05 08:18:15;;;;;;;0.60;0.60;;;;;;;;;;1915191;73;26255;-45
2022/05/05 08:20:42;;;;;;;0.55;0.50;;;;;;;;;;1921226;74;26245;-52
2022/05/05 08:23:09;;;;;;;0.72;0.70;;;;;;;;;;1922830;74;26316;-46
2022/05/05 08:28:33;;;;;;;0.40;0.40;;;;;;;;;;1910041;74;26750;-47
2022/05/05 08:31:00;;;;;;;0.62;0.62;;;;;;;;;;1905673;74;26345;-41
2022/05/05 08:33:28;;;;;;;2.12;0.80;;;;;;;;;;1911326;74;26291;-43
2022/05/05 08:35:56;;;;;;;1.10;0.50;;;;;;;;;;1911845;74;26262;-44
2022/05/05 08:38:23;;;;;;;0.65;0.60;;;;;;;;;;1912175;74;26914;-44
2022/05/05 08:40:51;;;;;;;0.68;0.68;;;;;;;;;;1913159;74;26287;-46
2022/05/05 08:43:19;;;;;;;1.47;0.70;;;;;;;;;;1904360;74;26311;-47
2022/05/05 08:45:47;;;;;;;0.70;0.70;;;;;;;;;;1891331;74;26280;-46
2022/05/05 08:48:16;;;;;;;0.60;0.60;;;;;;;;;;1905743;74;25776;-45
2022/05/05 08:50:47;;;;;;;0.70;0.70;;;;;;;;;;1911313;74;27332;-48
2022/05/05 08:53:15;;;;;;;0.60;0.60;;;;;;;;;;1912915;74;26346;-47
2022/05/05 08:55:46;;;;;;;1.50;0.60;;;;;;;;;;1912155;74;26225;-45
2022/05/05 08:58:13;;;;;;;0.70;0.70;;;;;;;;;;1911081;74;26250;-41
2022/05/05 09:00:41;;;;;;;0.70;0.70;;;;;;;;;;1913683;74;26242;-41
2022/05/05 09:03:10;;;;;;;0.50;0.50;;;;;;;;;;1892631;74;26278;-46
2022/05/05 09:05:45;;;;;;;1.65;0.62;;;;;;;;;;1912687;74;26806;-48
2022/05/05 09:08:13;;;;;;;0.60;0.60;;;;;;;;;;1912370;74;26246;-45
2022/05/05 09:10:44;;;;;;;0.60;0.53;;;;;;;;;;1910748;73;27388;-50
2022/05/05 09:13:12;;;;;;;0.80;0.80;;;;;;;;;;1901760;74;26286;-43
2022/05/05 09:15:41;;;;;;;0.65;0.65;;;;;;;;;;1903632;74;27385;-47
2022/05/05 09:18:15;;;;;;;0.70;0.70;;;;;;;;;;1904295;74;26284;-51
2022/05/05 09:20:43;;;;;;;0.68;0.68;;;;;;;;;;1903114;74;26305;-47
2022/05/05 09:23:12;;;;;;;0.62;0.62;;;;;;;;;;1894622;73;26741;-43
2022/05/05 09:25:49;;;;;;;0.80;0.80;;;;;;;;;;1892474;74;26315;-42
2022/05/05 09:28:20;;;;;;;0.70;0.70;;;;;;;;;;1894340;73;26790;-47
2022/05/05 09:30:51;;;;;;;1.17;0.60;;;;;;;;;;1907655;74;26230;-43
2022/05/05 09:33:38;;;;;;;1.30;0.65;;;;;;;;;;1900239;74;26324;-44
2022/05/05 09:36:09;;;;;;;3.02;0.70;;;;;;;;;;1907105;74;26927;-49
2022/05/05 09:38:53;;;;;;;0.70;0.70;;;;;;;;;;1908372;74;26238;-45
2022/05/05 09:41:24;;;;;;;0.78;0.78;;;;;;;;;;1886778;74;26320;-47
2022/05/05 09:43:53;;;;;;;0.80;0.80;;;;;;;;;;1911304;74;26223;-47
2022/05/05 09:46:28;;;;;;;0.70;0.70;;;;;;;;;;1911435;74;26247;-46
2022/05/05 09:49:11;;;;;;;0.90;0.60;;;;;;;;;;1913357;74;26364;-43
2022/05/05 09:51:39;;;;;;;0.70;0.70;;;;;;;;;;1898428;74;26395;-45
2022/05/05 09:59:44;;;;;;;0.60;0.60;;;;;;;;;;1899020;74;26255;-46
2022/05/05 10:02:15;;;;;;;0.60;0.60;;;;;;;;;;1914685;74;26273;-44
2022/05/05 10:04:44;;;;;;;0.57;0.57;;;;;;;;;;1908653;74;26315;-44
2022/05/05 10:07:11;;;;;;;0.70;0.70;;;;;;;;;;1911127;73;26205;-43
2022/05/05 10:09:39;;;;;;;0.60;0.60;;;;;;;;;;1882343;74;26278;-42
2022/05/05 10:12:09;;;;;;;0.75;0.75;;;;;;;;;;1914943;74;26333;-41
2022/05/05 10:14:36;;;;;;;0.60;0.60;;;;;;;;;;1914134;74;26250;-42
2022/05/05 10:17:04;;;;;;;0.70;0.70;;;;;;;;;;1894518;74;26227;-42
2022/05/05 10:19:32;;;;;;;0.70;0.70;;;;;;;;;;1921330;74;26627;-40
2022/05/05 10:22:09;;;;;;;0.70;0.70;;;;;;;;;;1914664;74;26753;-46
2022/05/05 10:24:38;;;;;;;0.60;0.60;;;;;;;;;;1904802;74;26874;-43
2022/05/05 10:27:06;;;;;;;0.80;0.60;;;;;;;;;;1906634;74;26730;-47
2022/05/05 10:29:35;;;;;;;0.60;0.60;;;;;;;;;;1912436;74;26175;-44
2022/05/05 10:32:07;;;;;;;0.60;0.60;;;;;;;;;;1909891;74;26703;-41
2022/05/05 10:34:34;;;;;;;0.60;0.60;;;;;;;;;;1907630;74;26848;-47
2022/05/05 10:37:06;;;;;;;0.60;0.60;;;;;;;;;;1911325;74;26253;-43
2022/05/05 10:39:34;;;;;;;0.72;0.72;;;;;;;;;;1913588;74;26780;-44
2022/05/05 10:42:15;;;;;;;0.60;0.60;;;;;;;;;;1903261;74;26855;-47
2022/05/05 10:44:59;;;;;;;0.65;0.65;;;;;;;;;;1844448;74;26309;-42
2022/05/05 10:47:26;;;;;;;0.70;0.70;;;;;;;;;;1823384;78;26785;-40
2022/05/05 10:49:54;;;;;;;1.27;0.70;;;;;;;;;;1874124;74;26239;-43
2022/05/05 10:52:23;;;;;;;0.60;0.60;;;;;;;;;;1916403;74;26323;-44
2022/05/05 10:54:51;;;;;;;0.70;0.70;;;;;;;;;;1913997;74;26321;-49
2022/05/05 10:57:30;;;;;;;0.80;0.80;;;;;;;;;;1920829;74;26319;-44
2022/05/05 11:00:07;;;;;;;0.60;0.60;;;;;;;;;;1900282;74;26289;-42
2022/05/05 11:02:35;;;;;;;0.50;0.50;;;;;;;;;;1914916;74;26309;-45
2022/05/05 11:05:23;;;;;;;0.78;0.78;;;;;;;;;;1910520;74;26241;-43
2022/05/05 11:07:51;;;;;;;0.60;0.60;;;;;;;;;;1910058;74;26588;-42
2022/05/05 11:10:37;;;;;;;0.70;0.70;;;;;;;;;;1912873;74;26564;-46
2022/05/05 11:13:04;;;;;;;0.70;0.70;;;;;;;;;;1903964;73;26312;-42
2022/05/05 11:23:59;;;;;;;0.68;0.68;;;;;;;;;;1903720;74;26290;-43
2022/05/05 11:26:27;;;;;;;0.85;0.62;;;;;;;;;;1914774;74;26322;-48
2022/05/05 11:28:55;;;;;;;0.60;0.60;;;;;;;;;;1911507;74;26726;-42
2022/05/05 11:31:23;;;;;;;1.40;0.60;;;;;;;;;;1918574;74;26761;-42
2022/05/05 11:33:53;;;;;;;0.65;0.65;;;;;;;;;;1914700;74;26222;-46
2022/05/05 11:36:21;;;;;;;0.60;0.60;;;;;;;;;;1910176;74;26250;-49
2022/05/05 11:38:48;;;;;;;0.60;0.60;;;;;;;;;;1913528;74;26222;-41
2022/05/05 11:41:19;;;;;;;0.72;0.72;;;;;;;;;;1915493;74;26662;-44
2022/05/05 11:46:33;;;;;;;0.70;0.70;;;;;;;;;;1908521;74;26397;-45
2022/05/05 11:49:01;;;;;;;0.60;0.60;;;;;;;;;;1915891;74;26718;-43
2022/05/05 11:51:30;;;;;;;0.90;0.60;;;;;;;;;;1914679;73;26258;-44
2022/05/05 11:54:10;;;;;;;0.70;0.70;;;;;;;;;;1913155;73;26237;-44
2022/05/05 11:56:39;;;;;;;0.75;0.75;;;;;;;;;;1914098;74;26250;-44
2022/05/05 12:02:01;;;;;;;0.75;0.75;;;;;;;;;;1872196;75;26333;-45
2022/05/05 12:04:29;;;;;;;0.70;0.70;;;;;;;;;;1876037;75;26213;-41
2022/05/05 12:06:58;;;;;;;0.68;0.68;;;;;;;;;;1873469;75;26339;-43
2022/05/05 12:09:26;;;;;;;0.70;0.70;;;;;;;;;;1870535;75;26301;-43
2022/05/05 12:11:54;;;;;;;0.68;0.68;;;;;;;;;;1877869;75;26284;-46
2022/05/05 12:14:23;;;;;;;0.60;0.60;;;;;;;;;;1874419;76;26743;-45
2022/05/05 12:16:51;;;;;;;1.95;0.70;;;;;;;;;;1879755;75;26762;-44
2022/05/05 12:19:20;;;;;;;0.60;0.60;;;;;;;;;;1877078;75;26281;-48
2022/05/05 12:21:52;;;;;;;0.60;0.60;;;;;;;;;;1827974;77;26848;-44
2022/05/05 12:24:24;;;;;;;0.68;0.68;;;;;;;;;;1848377;77;26278;-42
2022/05/05 12:26:49;;;;;;;0.60;0.60;;;;;;;;;;1909980;74;26831;-40
2022/05/05 12:29:19;;;;;;;0.50;0.50;;;;;;;;;;1910754;74;26329;-45
2022/05/05 12:31:55;;;;;;;0.65;0.65;;;;;;;;;;1909364;74;26365;-42
2022/05/05 12:34:25;;;;;;;0.70;0.70;;;;;;;;;;1914077;74;26250;-45
2022/05/05 12:37:10;;;;;;;0.70;0.70;;;;;;;;;;1910164;74;26262;-46
2022/05/05 12:39:51;;;;;;;0.62;0.62;;;;;;;;;;1910793;74;26332;-42
2022/05/05 12:42:18;;;;;;;0.70;0.70;;;;;;;;;;1880273;75;26293;-43
2022/05/05 12:44:46;;;;;;;0.60;0.60;;;;;;;;;;1864895;75;26271;-44
2022/05/05 12:47:15;;;;;;;0.60;0.60;;;;;;;;;;1873770;75;26250;-43
2022/05/05 12:49:44;;;;;;;0.80;0.80;;;;;;;;;;1888884;75;26635;-44
2022/05/05 13:00:28;;;;;;;0.72;0.72;;;;;;;;;;1882498;75;26270;-42
2022/05/05 13:02:56;;;;;;;0.70;0.70;;;;;;;;;;1922457;74;26235;-47
2022/05/05 13:05:25;;;;;;;0.62;0.62;;;;;;;;;;1913750;74;27388;-48
2022/05/05 13:07:52;;;;;;;0.70;0.70;;;;;;;;;;1908254;74;26266;-47
2022/05/05 13:10:19;;;;;;;0.70;0.70;;;;;;;;;;1911401;74;26391;-45
2022/05/05 13:12:47;;;;;;;4.95;0.78;;;;;;;;;;1901139;74;26327;-49
2022/05/05 13:15:14;;;;;;;0.68;0.68;;;;;;;;;;1905411;74;26531;-42
2022/05/05 13:17:41;;;;;;;0.70;0.70;;;;;;;;;;1903515;74;26333;-46
2022/05/05 13:20:09;;;;;;;0.75;0.75;;;;;;;;;;1912510;74;26249;-44
2022/05/05 13:22:37;;;;;;;2.85;0.70;;;;;;;;;;1899773;74;26778;-41
2022/05/05 13:25:05;;;;;;;0.60;0.60;;;;;;;;;;1910818;74;26238;-41
2022/05/05 13:27:33;;;;;;;0.70;0.70;;;;;;;;;;1908436;74;26738;-39
2022/05/05 13:30:00;;;;;;;0.80;0.80;;;;;;;;;;1920905;74;26220;-45
2022/05/05 13:32:28;;;;;;;0.70;0.70;;;;;;;;;;1913521;74;26312;-43
2022/05/05 13:34:55;;;;;;;0.68;0.68;;;;;;;;;;1910071;74;26240;-42
2022/05/05 13:37:22;;;;;;;0.70;0.70;;;;;;;;;;1913937;73;26262;-44
2022/05/05 13:39:49;;;;;;;0.75;0.75;;;;;;;;;;1911466;74;26356;-47
2022/05/05 13:42:17;;;;;;;0.60;0.60;;;;;;;;;;1910322;74;26303;-48
2022/05/05 13:44:44;;;;;;;0.68;0.68;;;;;;;;;;1904788;74;26242;-45
2022/05/05 13:47:13;;;;;;;0.60;0.60;;;;;;;;;;1899054;73;26298;-46
2022/05/05 13:49:40;;;;;;;1.07;0.60;;;;;;;;;;1913974;74;26324;-48
2022/05/05 13:52:08;;;;;;;0.70;0.70;;;;;;;;;;1919952;74;26204;-41
2022/05/05 13:54:35;;;;;;;1.27;0.78;;;;;;;;;;1908268;74;26186;-44
2022/05/05 13:57:02;;;;;;;0.62;0.62;;;;;;;;;;1913925;74;26308;-44
2022/05/05 13:59:30;;;;;;;0.70;0.70;;;;;;;;;;1898425;74;27426;-43
2022/05/05 14:01:58;;;;;;;0.60;0.60;;;;;;;;;;1893166;74;26261;-46
2022/05/05 14:04:25;;;;;;;0.60;0.60;;;;;;;;;;1901741;74;26240;-46
2022/05/05 14:06:52;;;;;;;0.80;0.80;;;;;;;;;;1913762;74;26253;-45
2022/05/05 14:12:11;;;;;;;0.80;0.80;;;;;;;;;;1904233;74;26295;-40
2022/05/05 14:14:39;;;;;;;0.60;0.60;;;;;;;;;;1897976;74;26316;-50
2022/05/05 14:17:07;;;;;;;1.55;0.60;;;;;;;;;;1912634;74;26372;-44
2022/05/05 14:19:34;;;;;;;0.80;0.80;;;;;;;;;;1912674;74;26300;-40
2022/05/05 14:22:01;;;;;;;0.82;0.82;;;;;;;;;;1908618;74;26820;-42
2022/05/05 14:24:29;;;;;;;0.80;0.80;;;;;;;;;;1913111;74;26244;-44
2022/05/05 14:26:56;;;;;;;0.60;0.60;;;;;;;;;;1909096;74;26299;-42
2022/05/05 14:29:24;;;;;;;0.68;0.60;;;;;;;;;;1904632;74;26266;-40
2022/05/05 14:31:51;;;;;;;0.80;0.80;;;;;;;;;;1920389;74;26327;-44
2022/05/05 14:34:20;;;;;;;0.80;0.80;;;;;;;;;;1919888;74;26792;-45
2022/05/05 14:36:50;;;;;;;0.60;0.60;;;;;;;;;;1916955;74;26746;-49
2022/05/05 14:39:17;;;;;;;0.72;0.72;;;;;;;;;;1920072;74;26254;-41
2022/05/05 14:41:45;;;;;;;0.55;0.55;;;;;;;;;;1924020;74;26244;-45
2022/05/05 14:44:12;;;;;;;0.70;0.70;;;;;;;;;;1915914;74;26257;-42
2022/05/05 14:46:40;;;;;;;0.60;0.60;;;;;;;;;;1894321;74;26246;-43
2022/05/05 14:49:07;;;;;;;0.80;0.80;;;;;;;;;;1916959;74;26250;-42
2022/05/05 14:51:35;;;;;;;0.80;0.80;;;;;;;;;;1922826;74;26191;-42
2022/05/05 14:54:02;;;;;;;0.88;0.88;;;;;;;;;;1914781;74;26241;-41
2022/05/05 14:56:29;;;;;;;1.37;0.75;;;;;;;;;;1923650;74;26225;-40
2022/05/05 14:58:57;;;;;;;0.78;0.78;;;;;;;;;;1912468;74;26256;-40
2022/05/05 15:01:24;;;;;;;0.70;0.70;;;;;;;;;;1919454;74;26237;-44
2022/05/05 15:03:51;;;;;;;0.60;0.60;;;;;;;;;;1912171;74;26378;-43
2022/05/05 15:06:19;;;;;;;0.80;0.80;;;;;;;;;;1919896;74;26254;-43
2022/05/05 15:08:47;;;;;;;0.68;0.68;;;;;;;;;;1916154;74;26269;-40
2022/05/05 15:11:15;;;;;;;0.80;0.80;;;;;;;;;;1919805;74;26339;-40
2022/05/05 15:13:42;;;;;;;0.80;0.80;;;;;;;;;;1919350;74;26633;-40
2022/05/05 15:16:10;;;;;;;0.72;0.72;;;;;;;;;;1905757;74;26221;-40
2022/05/05 15:18:37;;;;;;;0.70;0.70;;;;;;;;;;1909402;74;26563;-44
2022/05/05 15:21:05;;;;;;;0.75;0.75;;;;;;;;;;1919680;74;26231;-40
2022/05/05 15:23:32;;;;;;;0.70;0.70;;;;;;;;;;1922422;74;26349;-45
2022/05/05 15:26:00;;;;;;;0.70;0.70;;;;;;;;;;1913828;74;26214;-41
2022/05/05 15:28:28;;;;;;;0.80;0.80;;;;;;;;;;1906743;74;26571;-42
2022/05/05 15:30:56;;;;;;;0.80;0.80;;;;;;;;;;1893861;75;26238;-42
2022/05/05 15:33:24;;;;;;;0.95;0.80;;;;;;;;;;1890707;74;26214;-42
2022/05/05 15:35:51;;;;;;;0.80;0.80;;;;;;;;;;1894111;74;26229;-41
2022/05/05 15:38:19;;;;;;;0.75;0.75;;;;;;;;;;1890261;75;26296;-41
2022/05/05 15:40:46;;;;;;;0.80;0.80;;;;;;;;;;1890224;75;26906;-43
2022/05/05 15:43:14;;;;;;;0.65;0.65;;;;;;;;;;1897370;74;26779;-41
2022/05/05 15:45:42;;;;;;;0.80;0.80;;;;;;;;;;1883498;74;26254;-43